Time;durP1;ratioP1;P1;durP2;ratioP2;P2;SDS_P1;SDS_P2;PMS_P1;PMS_P2;Temp;Humidity;BMP_temperature;BMP_pressure;BME280_temperature;BME280_humidity;BME280_pressure;Samples;Min_cycle;Max_cycle;Signal;HPM_P1;HPM_P2
2021/09/04 00:00:55;;;;;;;34.55;16.75;;;;;;;17.53;71.95;101525.63;5029852;28;20045;-75
2021/09/04 00:03:22;;;;;;;31.38;16.65;;;;;;;17.51;71.92;101531.16;5023060;28;20402;-75
2021/09/04 00:05:49;;;;;;;34.33;16.75;;;;;;;17.52;71.93;101527.47;5000842;28;20107;-75
2021/09/04 00:08:16;;;;;;;33.53;17.58;;;;;;;17.38;72.41;101525.59;5006136;28;20045;-75
2021/09/04 00:10:43;;;;;;;35.38;17.55;;;;;;;17.39;72.44;101519.19;5013727;28;20065;-75
2021/09/04 00:13:11;;;;;;;33.97;16.33;;;;;;;17.35;72.26;101518.72;5016126;28;20474;-75
2021/09/04 00:15:38;;;;;;;31.73;16.75;;;;;;;17.31;72.85;101511.22;5019608;28;20049;-75
2021/09/04 00:18:07;;;;;;;29.08;16.10;;;;;;;17.27;72.96;101514.25;5023799;28;20045;-75
2021/09/04 00:20:34;;;;;;;32.28;16.38;;;;;;;17.25;72.90;101510.09;4981485;28;20498;-76
2021/09/04 00:23:03;;;;;;;35.58;16.42;;;;;;;17.19;73.27;101511.66;5014203;28;20403;-75
2021/09/04 00:25:30;;;;;;;34.15;16.67;;;;;;;17.10;73.86;101507.38;5014365;28;20406;-75
2021/09/04 00:27:57;;;;;;;37.78;17.25;;;;;;;17.10;73.75;101511.88;5013054;28;20442;-75
2021/09/04 00:30:23;;;;;;;33.60;17.23;;;;;;;17.05;74.12;101505.22;5033054;28;20573;-74
2021/09/04 00:32:50;;;;;;;36.20;16.42;;;;;;;17.01;74.51;101508.44;5025625;28;20407;-75
2021/09/04 00:35:17;;;;;;;32.97;17.70;;;;;;;16.94;74.70;101499.44;5012093;28;20042;-75
2021/09/04 00:37:44;;;;;;;38.03;21.67;;;;;;;16.91;75.16;101511.34;5014268;28;20049;-75
2021/09/04 00:40:12;;;;;;;29.25;16.15;;;;;;;16.88;75.24;101509.84;5014211;28;20438;-75
2021/09/04 00:42:39;;;;;;;32.67;16.98;;;;;;;16.82;75.38;101507.81;5013799;28;20038;-74
2021/09/04 00:45:06;;;;;;;29.23;17.27;;;;;;;16.77;75.62;101510.22;5012643;28;20095;-75
2021/09/04 00:47:33;;;;;;;33.78;18.25;;;;;;;16.69;75.98;101507.56;5013846;28;20566;-75
2021/09/04 00:50:00;;;;;;;38.28;17.73;;;;;;;16.66;76.14;101505.25;5013269;28;20046;-75
2021/09/04 00:52:27;;;;;;;36.00;17.95;;;;;;;16.65;75.91;101509.78;4996358;28;20046;-75
2021/09/04 00:54:53;;;;;;;34.15;17.42;;;;;;;16.65;75.60;101506.28;5013837;28;20042;-74
2021/09/04 00:57:21;;;;;;;35.05;18.15;;;;;;;16.60;75.92;101505.97;5012490;28;20508;-75
2021/09/04 00:59:47;;;;;;;31.95;17.48;;;;;;;16.58;76.24;101511.47;5012490;28;20048;-75
2021/09/04 01:02:16;;;;;;;32.95;17.35;;;;;;;16.50;75.63;101501.66;5044376;28;20072;-75
2021/09/04 01:04:44;;;;;;;32.30;16.58;;;;;;;16.50;76.00;101498.16;5073094;28;20053;-75
2021/09/04 01:07:12;;;;;;;33.00;18.08;;;;;;;16.43;76.13;101491.81;5073233;28;20046;-76
2021/09/04 01:09:40;;;;;;;38.65;18.50;;;;;;;16.36;76.26;101501.56;5054341;28;20037;-75
2021/09/04 01:12:08;;;;;;;35.83;17.90;;;;;;;16.33;76.33;101499.22;5067961;28;20049;-75
2021/09/04 01:14:36;;;;;;;32.97;17.75;;;;;;;16.27;77.10;101495.38;5073076;28;20060;-76
2021/09/04 01:17:03;;;;;;;35.67;18.23;;;;;;;16.22;77.28;101484.34;5052834;28;20046;-76
2021/09/04 01:19:30;;;;;;;35.78;18.15;;;;;;;16.24;77.05;101490.38;5038524;28;20128;-74
2021/09/04 01:21:57;;;;;;;34.25;17.80;;;;;;;16.22;77.01;101487.88;5055140;28;20044;-76
2021/09/04 01:24:23;;;;;;;34.97;18.30;;;;;;;16.10;78.07;101478.56;5038540;28;20059;-75
2021/09/04 01:26:50;;;;;;;36.42;18.67;;;;;;;16.17;77.76;101484.03;5055204;28;20120;-75
2021/09/04 01:29:17;;;;;;;38.67;19.58;;;;;;;16.14;78.17;101489.75;5073106;28;20044;-75
2021/09/04 01:31:44;;;;;;;34.97;19.50;;;;;;;16.12;78.35;101481.91;5072712;28;20041;-74
2021/09/04 01:34:11;;;;;;;38.65;19.55;;;;;;;16.18;78.51;101491.91;5054697;28;20036;-74
2021/09/04 01:36:39;;;;;;;36.80;19.17;;;;;;;16.17;78.19;101487.56;5072740;28;20567;-74
2021/09/04 01:39:08;;;;;;;35.03;18.98;;;;;;;16.23;77.69;101489.53;5072910;28;20055;-74
2021/09/04 01:41:37;;;;;;;37.03;20.73;;;;;;;16.24;77.79;101482.34;5038564;28;20048;-74
2021/09/04 01:44:04;;;;;;;38.67;20.35;;;;;;;16.09;78.54;101488.41;5054243;28;20040;-74
2021/09/04 01:46:33;;;;;;;37.25;20.88;;;;;;;16.11;78.32;101480.22;5054454;28;20047;-74
2021/09/04 01:49:01;;;;;;;39.75;20.67;;;;;;;16.15;nan;101486.06;5054210;28;20051;-74
2021/09/04 01:51:28;;;;;;;37.42;20.20;;;;;;;16.11;78.74;101478.38;5072720;28;20045;-74
2021/09/04 01:53:55;;;;;;;39.05;20.20;;;;;;;16.11;78.75;101480.22;5072773;28;20127;-74
2021/09/04 01:56:22;;;;;;;35.75;19.83;;;;;;;16.13;78.52;101478.19;5070716;28;20378;-75
2021/09/04 01:58:48;;;;;;;43.17;20.88;;;;;;;16.15;78.73;101473.50;5072276;28;20496;-74
2021/09/04 02:01:15;;;;;;;39.55;21.38;;;;;;;16.06;78.81;101472.72;5045115;28;20088;-74
2021/09/04 02:03:42;;;;;;;38.83;21.55;;;;;;;16.08;79.03;101477.88;5032190;28;20109;-74
2021/09/04 02:06:09;;;;;;;41.92;21.75;;;;;;;16.07;79.10;101481.56;5032451;28;20042;-74
2021/09/04 02:08:36;;;;;;;41.60;20.80;;;;;;;16.04;79.15;101474.69;5031548;28;20051;-74
2021/09/04 02:11:03;;;;;;;43.92;22.77;;;;;;;16.05;79.20;101480.91;5015023;28;20041;-76
2021/09/04 02:13:30;;;;;;;40.13;22.75;;;;;;;15.93;79.47;101475.94;5032534;28;20046;-76
2021/09/04 02:15:57;;;;;;;41.67;22.60;;;;;;;15.96;79.53;101481.94;5031225;28;20060;-76
2021/09/04 02:18:25;;;;;;;47.13;23.00;;;;;;;15.98;79.42;101477.25;5030976;28;20128;-76
2021/09/04 02:20:54;;;;;;;43.88;23.73;;;;;;;16.03;79.54;101480.25;5032781;28;20046;-75
2021/09/04 02:23:22;;;;;;;48.42;22.00;;;;;;;16.00;79.16;101483.28;5000689;28;20042;-76
2021/09/04 02:25:50;;;;;;;40.75;22.27;;;;;;;16.03;79.13;101469.56;5035060;28;20382;-76
2021/09/04 02:28:17;;;;;;;47.85;22.33;;;;;;;15.93;78.92;101469.72;5036774;28;20052;-76
2021/09/04 02:30:45;;;;;;;46.28;23.27;;;;;;;15.82;79.79;101468.25;5036726;28;20080;-76
2021/09/04 02:33:12;;;;;;;43.92;23.45;;;;;;;15.84;79.74;101466.22;5034521;28;20041;-76
2021/09/04 02:35:40;;;;;;;45.92;22.67;;;;;;;15.88;79.86;101469.41;4998991;28;20049;-76
2021/09/04 02:38:08;;;;;;;46.20;22.88;;;;;;;15.90;79.65;101470.09;5040006;28;20037;-75
2021/09/04 02:40:36;;;;;;;46.28;22.80;;;;;;;15.88;79.84;101464.91;5034896;28;20041;-75
2021/09/04 02:43:04;;;;;;;44.00;22.27;;;;;;;15.87;79.84;101463.22;5036409;28;20052;-76
2021/09/04 02:45:33;;;;;;;41.85;22.50;;;;;;;15.82;80.09;101459.41;5034982;28;20128;-76
2021/09/04 02:48:00;;;;;;;49.60;23.38;;;;;;;15.78;79.51;101461.56;5034715;28;20095;-76
2021/09/04 02:50:29;;;;;;;49.88;24.85;;;;;;;15.80;79.48;101459.56;5034661;28;20034;-75
2021/09/04 02:52:55;;;;;;;42.50;22.83;;;;;;;15.81;79.17;101453.22;5034440;28;20048;-76
2021/09/04 02:55:23;;;;;;;46.05;23.38;;;;;;;15.81;79.62;101455.03;5035946;28;20425;-76
2021/09/04 02:57:51;;;;;;;48.60;23.95;;;;;;;15.69;79.61;101460.72;5034645;28;20049;-76
2021/09/04 03:00:18;;;;;;;44.50;24.35;;;;;;;15.76;79.67;101457.41;5035691;28;20048;-75
2021/09/04 03:02:47;;;;;;;46.40;25.38;;;;;;;15.72;79.78;101460.41;5034470;28;20084;-75
2021/09/04 03:05:15;;;;;;;51.50;26.90;;;;;;;15.70;79.44;101458.91;5016349;28;20049;-75
2021/09/04 03:07:42;;;;;;;49.50;26.48;;;;;;;15.54;79.95;101468.59;5034385;28;20497;-75
2021/09/04 03:10:11;;;;;;;50.40;25.60;;;;;;;15.61;79.82;101465.25;5034554;28;20037;-75
2021/09/04 03:12:39;;;;;;;57.85;26.50;;;;;;;15.62;79.78;101469.59;5010701;28;20056;-75
2021/09/04 03:15:07;;;;;;;46.88;26.42;;;;;;;15.57;79.90;101463.91;5014159;28;20042;-75
2021/09/04 03:17:34;;;;;;;56.85;27.55;;;;;;;15.61;79.83;101466.09;5014950;28;20125;-75
2021/09/04 03:20:04;;;;;;;53.42;26.45;;;;;;;15.57;79.87;101461.25;5015086;28;20529;-75
2021/09/04 03:22:31;;;;;;;52.85;27.67;;;;;;;15.55;80.02;101456.06;5015651;28;20040;-75
2021/09/04 03:24:58;;;;;;;60.58;27.02;;;;;;;15.56;80.02;101457.75;5024156;28;20045;-75
2021/09/04 03:27:25;;;;;;;57.47;27.33;;;;;;;15.57;80.14;101456.72;5034101;28;20088;-75
2021/09/04 03:29:52;;;;;;;52.25;27.38;;;;;;;15.52;80.23;101461.78;5034065;28;20069;-75
2021/09/04 03:32:21;;;;;;;55.58;27.48;;;;;;;15.48;80.07;101463.94;5034053;28;20110;-75
2021/09/04 03:34:49;;;;;;;60.53;28.10;;;;;;;15.46;80.38;101460.63;5032443;28;20046;-75
2021/09/04 03:37:17;;;;;;;58.00;28.40;;;;;;;15.45;80.34;101461.59;5034335;28;20053;-75
2021/09/04 03:39:43;;;;;;;58.70;29.52;;;;;;;15.46;80.41;101452.59;5035052;28;20042;-75
2021/09/04 03:42:11;;;;;;;54.17;28.05;;;;;;;15.47;80.25;101458.75;5035185;28;20453;-75
2021/09/04 03:44:38;;;;;;;57.45;29.38;;;;;;;15.46;80.23;101459.75;5034706;28;20036;-75
2021/09/04 03:47:04;;;;;;;58.33;29.52;;;;;;;15.44;80.44;101454.56;5033020;28;20498;-75
2021/09/04 03:49:32;;;;;;;60.65;30.13;;;;;;;15.47;80.07;101453.41;5033465;28;20047;-75
2021/09/04 03:52:04;;;;;;;57.40;30.77;;;;;;;15.46;80.26;101459.75;5033761;28;20050;-75
2021/09/04 03:54:32;;;;;;;60.05;30.25;;;;;;;15.43;80.19;101466.28;5034952;28;20045;-75
2021/09/04 03:56:59;;;;;;;59.50;29.73;;;;;;;15.46;80.02;101465.97;5034747;28;20099;-75
2021/09/04 03:59:27;;;;;;;58.10;29.20;;;;;;;15.48;80.06;101477.31;5034496;28;20045;-75
2021/09/04 04:01:54;;;;;;;56.67;29.27;;;;;;;15.39;80.30;101470.31;5033358;28;20528;-75
2021/09/04 04:04:21;;;;;;;64.25;31.20;;;;;;;15.36;80.38;101474.13;5034177;28;20033;-75
2021/09/04 04:06:49;;;;;;;54.88;29.27;;;;;;;15.36;80.43;101473.31;5034525;28;20080;-75
2021/09/04 04:09:17;;;;;;;64.80;29.98;;;;;;;15.34;80.27;101473.47;5032895;28;20057;-74
2021/09/04 04:11:46;;;;;;;60.90;29.95;;;;;;;15.32;80.32;101480.81;5034430;28;20389;-75
2021/09/04 04:14:12;;;;;;;66.40;30.40;;;;;;;15.29;80.38;101483.81;5016524;28;20065;-75
2021/09/04 04:16:40;;;;;;;60.50;30.63;;;;;;;15.29;80.43;101481.16;5034380;28;20045;-75
2021/09/04 04:19:08;;;;;;;61.05;29.52;;;;;;;15.30;80.40;101477.50;5033925;28;20042;-75
2021/09/04 04:21:36;;;;;;;60.50;30.73;;;;;;;15.32;80.22;101474.66;5034555;28;20502;-75
2021/09/04 04:24:04;;;;;;;59.17;31.15;;;;;;;15.29;80.30;101472.31;5033129;28;20041;-75
2021/09/04 04:26:30;;;;;;;63.17;30.95;;;;;;;15.16;80.10;101478.97;5032892;28;20056;-75
2021/09/04 04:28:57;;;;;;;58.83;30.35;;;;;;;15.14;80.49;101469.47;5032831;28;20045;-75
2021/09/04 04:31:24;;;;;;;60.17;31.13;;;;;;;15.07;80.78;101473.81;5016726;28;20044;-75
2021/09/04 04:33:52;;;;;;;67.50;30.92;;;;;;;15.11;80.86;101477.81;5032545;28;20128;-76
2021/09/04 04:36:19;;;;;;;60.03;29.35;;;;;;;15.12;80.61;101472.31;5032150;28;20445;-74
2021/09/04 04:38:45;;;;;;;59.75;31.10;;;;;;;15.11;80.64;101472.47;5034001;28;20056;-74
2021/09/04 04:41:13;;;;;;;66.88;31.70;;;;;;;15.18;80.34;101475.31;5032533;28;20046;-74
2021/09/04 04:43:40;;;;;;;66.38;32.85;;;;;;;15.12;80.87;101482.16;5032485;28;20045;-74
2021/09/04 04:46:07;;;;;;;65.57;31.75;;;;;;;15.06;80.66;101482.81;5031652;28;20133;-74
2021/09/04 04:48:39;;;;;;;64.70;32.15;;;;;;;15.08;80.69;101481.66;5032604;28;20136;-75
2021/09/04 04:51:07;;;;;;;70.18;31.98;;;;;;;15.09;80.82;101482.47;5033292;28;20049;-75
2021/09/04 04:53:34;;;;;;;66.50;33.47;;;;;;;15.06;80.81;101480.13;5023487;28;20038;-75
2021/09/04 04:56:02;;;;;;;62.58;32.08;;;;;;;15.09;80.73;101477.97;5042587;28;20050;-76
2021/09/04 04:58:29;;;;;;;67.35;32.00;;;;;;;15.15;80.30;101489.81;5032379;28;20120;-75
2021/09/04 05:00:57;;;;;;;69.00;34.03;;;;;;;15.08;80.51;101487.00;5040266;28;20084;-75
2021/09/04 05:03:24;;;;;;;66.72;32.08;;;;;;;15.04;80.57;101490.97;5073238;28;20071;-75
2021/09/04 05:05:51;;;;;;;62.63;32.72;;;;;;;15.07;80.79;101489.84;5073129;28;20445;-75
2021/09/04 05:08:18;;;;;;;67.40;34.35;;;;;;;14.96;80.50;101478.47;5073010;28;20114;-76
2021/09/04 05:10:45;;;;;;;69.40;33.55;;;;;;;14.98;80.49;101487.13;5039159;28;20049;-76
2021/09/04 05:13:12;;;;;;;70.53;35.22;;;;;;;14.95;80.61;101490.16;5069305;28;20374;-76
2021/09/04 05:15:39;;;;;;;69.53;36.05;;;;;;;14.96;80.63;101494.50;5038678;28;20050;-74
2021/09/04 05:18:06;;;;;;;73.82;34.97;;;;;;;14.93;80.97;101500.16;5052858;28;20041;-74
2021/09/04 05:20:34;;;;;;;71.50;35.63;;;;;;;14.93;80.75;101496.66;5072882;28;20040;-74
2021/09/04 05:23:00;;;;;;;69.80;35.80;;;;;;;14.89;81.14;101506.00;5054899;28;20044;-74
2021/09/04 05:25:27;;;;;;;70.70;36.35;;;;;;;14.89;80.74;101503.31;5022528;28;20515;-74
2021/09/04 05:27:55;;;;;;;67.55;34.85;;;;;;;14.84;80.91;101508.31;5072891;28;20075;-75
2021/09/04 05:30:21;;;;;;;72.32;35.85;;;;;;;14.83;81.00;101510.16;5055286;28;20049;-74
2021/09/04 05:32:48;;;;;;;70.07;36.08;;;;;;;14.83;81.38;101518.19;5055251;28;20055;-75
2021/09/04 05:35:15;;;;;;;74.72;37.50;;;;;;;14.86;81.08;101528.53;5021668;28;20032;-75
2021/09/04 05:37:42;;;;;;;74.97;36.95;;;;;;;14.78;81.33;101520.50;5072707;28;20048;-74
2021/09/04 05:40:10;;;;;;;75.45;37.75;;;;;;;14.67;81.91;101521.63;5021813;28;20045;-75
2021/09/04 05:42:36;;;;;;;77.00;37.28;;;;;;;14.78;81.86;101518.66;5071217;28;20460;-75
2021/09/04 05:45:06;;;;;;;78.50;38.80;;;;;;;14.74;82.05;101522.66;5054354;28;20037;-75
2021/09/04 05:47:33;;;;;;;76.20;38.55;;;;;;;14.78;81.79;101515.97;5072733;28;20047;-75
2021/09/04 05:50:02;;;;;;;70.22;37.40;;;;;;;14.92;81.62;101519.88;5021028;28;20443;-75
2021/09/04 05:52:30;;;;;;;72.97;37.75;;;;;;;14.91;81.79;101522.69;5054870;28;20040;-75
2021/09/04 05:54:58;;;;;;;74.68;39.03;;;;;;;14.90;82.16;101521.88;5055019;28;20045;-75
2021/09/04 05:57:24;;;;;;;77.13;38.97;;;;;;;14.94;81.90;101523.19;5021685;28;20166;-75
2021/09/04 05:59:51;;;;;;;81.20;39.13;;;;;;;14.95;81.65;101526.69;5055123;28;20048;-75
2021/09/04 06:02:18;;;;;;;77.32;37.60;;;;;;;14.95;81.66;101526.69;5072439;28;20508;-74
2021/09/04 06:04:45;;;;;;;77.18;38.83;;;;;;;15.00;81.17;101529.72;5071956;28;20098;-76
2021/09/04 06:07:12;;;;;;;70.75;39.35;;;;;;;15.05;81.29;101526.56;5054495;28;20059;-76
2021/09/04 06:09:38;;;;;;;77.00;38.20;;;;;;;15.04;81.16;101524.88;5072543;28;20435;-75
2021/09/04 06:12:05;;;;;;;76.13;39.22;;;;;;;14.99;81.07;101520.06;5052656;28;20114;-75
2021/09/04 06:14:32;;;;;;;70.68;37.13;;;;;;;14.95;81.49;101526.69;5072548;28;20038;-76
2021/09/04 06:16:59;;;;;;;74.90;37.97;;;;;;;14.98;81.71;101523.72;5054433;28;20048;-76
2021/09/04 06:19:25;;;;;;;72.60;38.33;;;;;;;15.00;81.81;101536.91;5072112;28;20052;-75
2021/09/04 06:21:52;;;;;;;73.85;37.70;;;;;;;15.11;81.36;101537.41;5072177;28;20102;-76
2021/09/04 06:24:19;;;;;;;76.55;39.97;;;;;;;15.10;81.94;101537.63;5038077;28;20036;-75
2021/09/04 06:26:46;;;;;;;79.70;37.55;;;;;;;15.22;81.23;101538.94;5072245;28;20068;-75
2021/09/04 06:29:13;;;;;;;79.57;38.80;;;;;;;15.26;81.00;101539.44;5054989;28;20041;-76
2021/09/04 06:31:39;;;;;;;73.40;38.08;;;;;;;15.31;80.86;101539.78;5054052;28;20048;-76
2021/09/04 06:34:06;;;;;;;78.57;39.90;;;;;;;15.32;80.74;101539.63;5072008;28;20451;-75
2021/09/04 06:36:33;;;;;;;71.45;37.58;;;;;;;15.34;80.45;101542.97;5070468;28;20447;-76
2021/09/04 06:38:59;;;;;;;84.40;40.00;;;;;;;15.25;80.81;101549.31;5072279;28;20045;-76
2021/09/04 06:41:26;;;;;;;77.15;38.63;;;;;;;15.28;80.70;101545.47;5021608;28;20504;-76
2021/09/04 06:43:54;;;;;;;74.90;36.85;;;;;;;15.35;80.46;101547.34;5038188;28;20036;-75
2021/09/04 06:46:21;;;;;;;77.75;37.40;;;;;;;15.35;80.86;101546.47;5072347;28;20393;-76
2021/09/04 06:48:47;;;;;;;78.13;38.47;;;;;;;15.44;80.65;101553.50;5054306;28;20051;-75
2021/09/04 06:51:14;;;;;;;73.53;38.28;;;;;;;15.57;80.34;101550.31;5054225;28;20582;-75
2021/09/04 06:53:41;;;;;;;76.28;37.67;;;;;;;15.66;79.77;101552.03;5072056;28;20037;-75
2021/09/04 06:56:08;;;;;;;78.90;37.97;;;;;;;15.60;79.56;101549.16;5071905;28;20040;-75
2021/09/04 06:58:35;;;;;;;76.53;38.70;;;;;;;15.68;79.83;101555.34;5054496;28;20045;-75
2021/09/04 07:01:02;;;;;;;73.00;37.22;;;;;;;15.80;79.46;101555.03;5053978;28;20128;-75
2021/09/04 07:03:29;;;;;;;79.03;36.17;;;;;;;15.82;79.30;101545.81;5054164;28;20447;-76
2021/09/04 07:05:55;;;;;;;67.57;34.58;;;;;;;15.87;78.53;101545.34;5037492;28;20175;-75
2021/09/04 07:08:22;;;;;;;74.05;35.75;;;;;;;15.90;78.31;101558.38;5035925;28;20051;-76
2021/09/04 07:10:49;;;;;;;61.70;33.55;;;;;;;15.91;78.55;101552.84;5042077;28;20054;-76
2021/09/04 07:13:16;;;;;;;69.85;33.83;;;;;;;15.97;78.30;101551.34;5036162;28;20064;-75
2021/09/04 07:15:43;;;;;;;62.08;33.55;;;;;;;16.11;78.29;101558.66;5087405;28;20487;-75
2021/09/04 07:18:10;;;;;;;64.18;34.00;;;;;;;16.06;78.16;101555.69;5068780;28;20043;-76
2021/09/04 07:20:37;;;;;;;72.93;34.85;;;;;;;16.12;77.89;101555.00;5075181;28;20045;-76
2021/09/04 07:23:04;;;;;;;67.70;34.85;;;;;;;16.06;77.71;101547.66;5075095;28;20051;-76
2021/09/04 07:25:30;;;;;;;64.45;34.10;;;;;;;15.98;77.63;101550.34;5075162;28;20037;-76
2021/09/04 07:27:57;;;;;;;66.55;34.38;;;;;;;16.14;77.27;101546.78;5074934;28;20052;-75
2021/09/04 07:30:24;;;;;;;62.45;33.30;;;;;;;16.16;77.03;101549.31;5040619;28;20143;-75
2021/09/04 07:32:50;;;;;;;64.32;33.60;;;;;;;16.20;77.17;101554.13;5075165;28;20049;-75
2021/09/04 07:35:17;;;;;;;60.90;32.50;;;;;;;16.19;77.27;101557.81;5022343;28;20453;-75
2021/09/04 07:37:44;;;;;;;62.13;31.98;;;;;;;16.08;77.24;101555.47;5074760;28;20056;-75
2021/09/04 07:40:11;;;;;;;59.95;31.58;;;;;;;15.95;77.30;101557.88;5074846;28;20040;-76
2021/09/04 07:42:38;;;;;;;60.90;32.45;;;;;;;15.74;78.28;101565.41;5074766;28;20055;-76
2021/09/04 07:45:06;;;;;;;59.90;32.58;;;;;;;15.71;78.49;101567.53;5056880;28;20040;-75
2021/09/04 07:47:32;;;;;;;64.25;33.17;;;;;;;15.80;78.32;101563.06;5056451;28;20448;-75
2021/09/04 07:49:59;;;;;;;62.92;32.05;;;;;;;15.87;78.26;101564.88;5056840;28;20067;-75
2021/09/04 07:52:26;;;;;;;64.93;32.28;;;;;;;15.81;78.21;101567.41;5074630;28;20109;-76
2021/09/04 07:54:53;;;;;;;66.78;32.33;;;;;;;15.97;77.41;101570.09;5074604;28;20546;-75
2021/09/04 07:57:20;;;;;;;63.28;32.22;;;;;;;16.04;77.68;101563.03;5056784;28;20510;-75
2021/09/04 07:59:46;;;;;;;63.45;32.00;;;;;;;16.08;77.08;101569.72;5074538;28;20041;-76
2021/09/04 08:02:14;;;;;;;62.80;31.05;;;;;;;16.25;76.92;101573.19;5039307;28;20056;-76
2021/09/04 08:04:41;;;;;;;57.35;31.92;;;;;;;16.39;76.65;101571.66;5034061;28;20041;-76
2021/09/04 08:07:08;;;;;;;57.45;30.88;;;;;;;16.53;76.13;101569.25;5031500;28;20042;-75
2021/09/04 08:09:35;;;;;;;61.55;31.15;;;;;;;16.64;75.89;101569.69;5033014;28;20069;-75
2021/09/04 08:12:01;;;;;;;56.97;29.25;;;;;;;16.48;75.47;101575.97;5034341;28;20048;-75
2021/09/04 08:14:28;;;;;;;56.67;29.38;;;;;;;16.55;75.84;101576.09;5034190;28;20095;-76
2021/09/04 08:16:55;;;;;;;56.50;28.60;;;;;;;16.50;75.98;101567.78;5016697;28;20059;-75
2021/09/04 08:19:22;;;;;;;57.92;30.25;;;;;;;16.59;75.20;101577.44;5016490;28;20133;-75
2021/09/04 08:21:49;;;;;;;57.80;29.38;;;;;;;16.75;74.66;101565.81;5033012;28;20045;-75
2021/09/04 08:24:17;;;;;;;51.50;27.25;;;;;;;16.86;74.52;101578.00;5032486;28;20387;-75
2021/09/04 08:26:44;;;;;;;57.45;27.88;;;;;;;17.13;73.71;101581.22;5016430;28;20096;-75
2021/09/04 08:29:11;;;;;;;60.47;28.58;;;;;;;16.92;73.37;101577.34;5033954;28;20132;-75
2021/09/04 08:31:38;;;;;;;51.25;28.15;;;;;;;16.71;74.08;101577.88;5033673;28;20059;-75
2021/09/04 08:34:06;;;;;;;64.10;29.05;;;;;;;16.66;74.13;101582.94;5031964;28;20053;-75
2021/09/04 08:36:32;;;;;;;55.13;27.67;;;;;;;16.67;74.66;101576.56;5031941;28;20482;-75
2021/09/04 08:38:59;;;;;;;58.22;27.63;;;;;;;16.73;74.23;101580.41;5032292;28;20653;-75
2021/09/04 08:41:26;;;;;;;54.03;28.60;;;;;;;16.67;74.28;101573.91;5033754;28;20045;-75
2021/09/04 08:43:53;;;;;;;51.72;26.30;;;;;;;17.04;74.29;101580.44;5033851;28;20104;-75
2021/09/04 08:46:20;;;;;;;50.83;27.65;;;;;;;16.96;73.53;101581.31;5032492;28;20041;-75
2021/09/04 08:48:49;;;;;;;52.75;27.98;;;;;;;17.03;72.74;101570.75;5032253;28;20486;-75
2021/09/04 08:51:16;;;;;;;55.50;27.98;;;;;;;16.98;72.88;101575.78;5031862;28;20045;-76
2021/09/04 08:53:42;;;;;;;48.45;25.55;;;;;;;17.09;73.29;101570.03;5016054;28;20061;-75
2021/09/04 08:56:10;;;;;;;53.35;26.85;;;;;;;17.18;72.34;101573.50;5033249;28;20045;-75
2021/09/04 08:58:37;;;;;;;48.40;25.27;;;;;;;17.21;72.67;101573.97;5032422;28;20041;-75
2021/09/04 09:01:15;;;;;;;55.13;25.67;;;;;;;17.28;72.50;101571.38;5031542;28;20049;-75
2021/09/04 09:03:43;;;;;;;49.45;25.65;;;;;;;17.56;71.77;101582.44;5006373;28;20042;-75
2021/09/04 09:06:36;;;;;;;45.08;25.20;;;;;;;17.86;70.70;101587.09;5016746;28;20052;-76
2021/09/04 09:09:24;;;;;;;45.53;24.73;;;;;;;17.58;70.88;101587.63;5033247;28;20045;-76
2021/09/04 09:11:52;;;;;;;49.10;25.45;;;;;;;17.86;70.53;101582.53;4998863;28;20129;-76
2021/09/04 09:14:20;;;;;;;43.47;24.20;;;;;;;18.07;69.46;101583.72;5012117;28;20045;-76
2021/09/04 09:16:56;;;;;;;47.42;24.20;;;;;;;18.20;69.54;101582.03;5032383;28;20041;-76
2021/09/04 09:19:27;;;;;;;43.38;24.17;;;;;;;18.22;68.01;101579.16;5031361;28;20037;-76
2021/09/04 09:21:56;;;;;;;48.25;24.17;;;;;;;18.48;68.07;101577.88;5034761;28;20121;-76
2021/09/04 09:24:25;;;;;;;48.42;24.40;;;;;;;18.97;66.38;101577.28;5033416;28;20047;-76
2021/09/04 09:26:55;;;;;;;50.30;25.60;;;;;;;19.38;63.86;101574.81;5034465;28;20045;-75
2021/09/04 09:29:25;;;;;;;48.58;26.27;;;;;;;19.90;62.25;101571.97;5032357;28;20033;-77
2021/09/04 09:32:08;;;;;;;42.05;24.65;;;;;;;20.69;59.73;101570.81;5017102;28;20069;-77
2021/09/04 09:34:40;;;;;;;44.38;24.17;;;;;;;21.27;57.67;101564.97;5022467;28;20489;-77
2021/09/04 09:37:08;;;;;;;44.35;24.00;;;;;;;21.83;55.51;101570.03;5041651;28;20041;-76
2021/09/04 09:39:37;;;;;;;40.33;24.05;;;;;;;22.16;54.77;101566.44;5034408;28;20112;-76
2021/09/04 09:42:06;;;;;;;41.28;22.60;;;;;;;22.85;53.15;101564.16;5031675;28;20048;-76
2021/09/04 09:44:35;;;;;;;40.70;22.30;;;;;;;23.61;51.85;101570.53;5002971;28;20042;-76
2021/09/04 09:47:04;;;;;;;41.85;22.83;;;;;;;24.32;48.70;101566.56;5018743;28;20045;-76
2021/09/04 09:49:35;;;;;;;40.45;23.00;;;;;;;24.39;47.86;101566.47;5031586;28;20054;-73
2021/09/04 09:52:07;;;;;;;36.33;22.02;;;;;;;25.16;46.80;101559.66;5030910;28;20100;-73
2021/09/04 09:54:35;;;;;;;38.58;21.50;;;;;;;25.07;45.90;101565.44;5029760;28;20075;-73
2021/09/04 09:57:05;;;;;;;34.17;21.20;;;;;;;25.11;46.02;101552.22;5027213;28;20115;-73
2021/09/04 09:59:32;;;;;;;33.13;20.95;;;;;;;24.96;46.28;101558.09;5023299;28;20037;-73
2021/09/04 10:02:05;;;;;;;31.48;20.95;;;;;;;25.22;46.64;101556.03;5054582;28;20052;-73
2021/09/04 10:04:34;;;;;;;38.30;22.15;;;;;;;24.98;46.07;101555.97;5063333;28;20378;-73
2021/09/04 10:07:05;;;;;;;37.58;22.70;;;;;;;24.67;47.35;101552.41;5052333;28;20133;-73
2021/09/04 10:09:32;;;;;;;35.22;20.30;;;;;;;24.26;49.03;101553.91;5067679;28;20560;-73
2021/09/04 10:11:59;;;;;;;40.25;21.67;;;;;;;24.17;49.73;101552.53;5037537;28;20044;-73
2021/09/04 10:14:26;;;;;;;34.63;21.50;;;;;;;24.27;49.58;101555.56;5071813;28;20048;-74
2021/09/04 10:16:57;;;;;;;39.58;23.30;;;;;;;23.48;50.55;101549.00;5035314;28;20044;-72
2021/09/04 10:19:29;;;;;;;39.47;21.85;;;;;;;23.30;51.60;101547.03;5073376;28;20055;-71
2021/09/04 10:22:00;;;;;;;35.35;22.67;;;;;;;23.37;50.60;101545.94;5068169;28;20040;-71
2021/09/04 10:24:47;;;;;;;41.22;22.73;;;;;;;23.43;51.98;101548.81;5029918;28;20037;-72
2021/09/04 10:27:28;;;;;;;35.67;22.00;;;;;;;23.61;51.36;101546.16;5047855;28;20036;-72
2021/09/04 10:29:54;;;;;;;37.87;21.97;;;;;;;23.23;52.16;101547.13;5054494;28;20036;-73
2021/09/04 10:32:21;;;;;;;39.58;22.38;;;;;;;22.98;52.05;101547.03;5072867;28;20420;-72
2021/09/04 10:35:05;;;;;;;36.03;22.67;;;;;;;22.19;53.65;101546.25;5080467;28;20055;-72
2021/09/04 10:37:42;;;;;;;37.30;21.42;;;;;;;22.04;55.27;101544.63;5048738;28;20044;-72
2021/09/04 10:40:10;;;;;;;33.25;21.23;;;;;;;22.34;55.28;101543.34;5037413;28;20041;-72
2021/09/04 10:42:39;;;;;;;37.92;20.60;;;;;;;22.34;55.39;101540.63;5002339;28;20044;-72
2021/09/04 10:45:10;;;;;;;33.63;20.20;;;;;;;22.28;55.17;101538.78;5066408;28;20068;-73
2021/09/04 10:50:25;;;;;;;32.75;20.10;;;;;;;21.74;56.67;101538.03;5084758;27;20409;-73
2021/09/04 10:52:56;;;;;;;33.97;19.83;;;;;;;21.97;55.71;101537.59;5067063;28;20067;-72
2021/09/04 10:55:26;;;;;;;34.58;19.95;;;;;;;21.82;56.61;101533.25;5063113;28;20040;-73
2021/09/04 10:58:10;;;;;;;31.02;19.67;;;;;;;21.96;57.13;101538.66;5088998;28;20115;-72
2021/09/04 11:00:46;;;;;;;37.45;21.48;;;;;;;21.82;56.36;101538.66;5090866;28;20047;-73
2021/09/04 11:03:14;;;;;;;38.40;22.52;;;;;;;21.46;57.36;101537.19;5080456;28;20040;-72
2021/09/04 11:05:59;;;;;;;34.03;21.17;;;;;;;21.37;58.35;101533.00;5077229;28;20045;-71
2021/09/04 11:08:32;;;;;;;36.13;21.63;;;;;;;21.81;58.39;101530.75;5082813;28;20068;-71
2021/09/04 11:11:19;;;;;;;41.92;24.90;;;;;;;21.13;57.93;101529.03;5075273;28;20037;-69
2021/09/04 11:13:48;;;;;;;39.85;23.38;;;;;;;21.06;59.35;101525.50;5057137;28;20038;-70
2021/09/04 11:16:36;;;;;;;41.58;24.80;;;;;;;21.13;58.67;101531.75;5072069;28;20040;-72